Time;durP1;ratioP1;P1;durP2;ratioP2;P2;SDS_P1;SDS_P2;PMS_P1;PMS_P2;Temp;Humidity;BMP_temperature;BMP_pressure;BME280_temperature;BME280_humidity;BME280_pressure;Samples;Min_cycle;Max_cycle;Signal;HPM_P1;HPM_P2
2022/10/17 00:01:39;;;;;;;15.32;10.10;;;13.80;99.90;;;;;;4963947;28;20082;-64
2022/10/17 00:04:05;;;;;;;14.07;9.57;;;13.80;99.90;;;;;;4972826;28;20047;-63
2022/10/17 00:06:31;;;;;;;15.48;9.98;;;13.90;99.90;;;;;;4970067;28;20074;-63
2022/10/17 00:08:56;;;;;;;15.90;9.93;;;13.80;99.90;;;;;;4968543;28;20039;-64
2022/10/17 00:11:23;;;;;;;13.55;9.60;;;13.80;99.90;;;;;;4975140;28;20448;-64
2022/10/17 00:13:52;;;;;;;14.10;9.70;;;13.80;99.90;;;;;;4963961;28;20063;-64
2022/10/17 00:16:30;;;;;;;18.05;10.32;;;13.80;99.90;;;;;;4971960;28;20452;-64
2022/10/17 00:18:56;;;;;;;15.50;10.73;;;13.90;99.90;;;;;;4972083;28;20066;-64
2022/10/17 00:21:23;;;;;;;13.63;10.25;;;13.80;99.90;;;;;;4969598;28;20053;-62
2022/10/17 00:23:48;;;;;;;18.65;10.30;;;13.90;99.90;;;;;;4974837;28;20086;-63
2022/10/17 00:26:15;;;;;;;13.23;10.07;;;13.90;99.90;;;;;;4967689;28;20042;-64
2022/10/17 00:28:41;;;;;;;20.58;10.18;;;13.90;99.90;;;;;;4975686;28;20112;-63
2022/10/17 00:31:07;;;;;;;13.05;10.02;;;13.80;99.90;;;;;;4966305;28;20482;-64
2022/10/17 00:33:34;;;;;;;16.08;9.80;;;13.80;99.90;;;;;;4966327;28;20044;-64
2022/10/17 00:36:04;;;;;;;15.48;9.77;;;13.80;99.90;;;;;;4972439;28;20089;-63
2022/10/17 00:38:29;;;;;;;19.35;10.73;;;13.80;99.90;;;;;;4971925;28;20516;-63
2022/10/17 00:40:55;;;;;;;18.88;10.38;;;13.80;99.90;;;;;;4970637;28;20038;-63
2022/10/17 00:43:21;;;;;;;18.08;10.40;;;13.80;99.90;;;;;;4967483;28;20053;-63
2022/10/17 00:45:46;;;;;;;19.17;10.95;;;13.80;99.90;;;;;;4975752;28;20035;-64
2022/10/17 00:48:13;;;;;;;15.05;10.38;;;13.80;99.90;;;;;;4962347;28;20061;-62
2022/10/17 00:50:41;;;;;;;14.77;10.60;;;13.90;99.90;;;;;;4963982;28;20054;-63
2022/10/17 00:53:08;;;;;;;18.48;10.60;;;13.90;99.90;;;;;;4975379;28;20049;-64
2022/10/17 00:55:40;;;;;;;17.58;10.13;;;13.90;99.90;;;;;;4971828;28;20050;-63
2022/10/17 00:58:06;;;;;;;16.48;10.38;;;13.90;99.90;;;;;;4967311;28;20043;-63
2022/10/17 01:00:32;;;;;;;13.88;10.55;;;13.90;99.90;;;;;;4967236;28;20093;-64
2022/10/17 01:02:58;;;;;;;15.88;10.30;;;13.80;99.90;;;;;;4971812;28;20110;-64
2022/10/17 01:05:23;;;;;;;16.10;9.98;;;13.80;99.90;;;;;;4971825;28;20792;-64
2022/10/17 01:07:51;;;;;;;16.77;10.32;;;13.70;99.90;;;;;;4966845;28;20039;-64
2022/10/17 01:10:17;;;;;;;14.13;10.15;;;13.60;99.90;;;;;;4972503;28;20078;-63
2022/10/17 01:13:09;;;;;;;14.55;10.60;;;13.60;99.90;;;;;;4964713;28;20067;-63
2022/10/17 01:16:12;;;;;;;15.82;10.40;;;13.50;99.90;;;;;;4963712;28;20066;-63
2022/10/17 01:18:50;;;;;;;15.63;10.57;;;13.50;99.90;;;;;;4955510;29;20055;-63
2022/10/17 01:21:21;;;;;;;17.77;11.52;;;13.40;99.90;;;;;;4958836;28;20078;-63
2022/10/17 01:24:13;;;;;;;13.45;10.90;;;13.30;99.90;;;;;;4968651;28;20175;-63
2022/10/17 01:27:05;;;;;;;15.27;11.23;;;13.30;99.90;;;;;;4955642;29;20438;-62
2022/10/17 01:29:49;;;;;;;;;;;13.20;99.90;;;;;;4960101;28;20122;-64
2022/10/17 01:32:35;;;;;;;19.70;11.55;;;13.20;99.90;;;;;;4964598;28;19922;-63
2022/10/17 01:35:04;;;;;;;17.48;11.93;;;13.20;99.90;;;;;;4974850;28;20054;-62
2022/10/17 01:37:41;;;;;;;16.00;12.00;;;13.10;99.90;;;;;;4967080;28;20045;-63
2022/10/17 01:40:28;;;;;;;18.95;12.30;;;13.10;99.90;;;;;;4973341;28;20039;-63
2022/10/17 01:43:13;;;;;;;17.10;12.30;;;13.10;99.90;;;;;;4969686;28;20035;-64
2022/10/17 01:45:44;;;;;;;16.63;12.10;;;13.10;99.90;;;;;;4968319;28;20039;-64
2022/10/17 01:48:34;;;;;;;17.42;12.73;;;13.10;99.90;;;;;;4958560;28;20043;-63
2022/10/17 01:51:07;;;;;;;16.58;12.68;;;13.10;99.90;;;;;;4963291;28;20045;-62
2022/10/17 01:53:38;;;;;;;20.38;12.93;;;13.10;99.90;;;;;;4958112;28;20054;-64
2022/10/17 01:56:07;;;;;;;21.60;13.13;;;13.10;99.90;;;;;;4970737;28;20054;-62
2022/10/17 01:58:41;;;;;;;17.95;12.90;;;13.10;99.90;;;;;;4966941;28;20045;-64
2022/10/17 02:01:09;;;;;;;19.08;13.32;;;13.10;99.90;;;;;;4971065;28;20513;-63
2022/10/17 02:03:36;;;;;;;18.77;13.50;;;13.10;99.90;;;;;;4971031;28;20043;-64
2022/10/17 02:06:03;;;;;;;19.17;13.95;;;13.10;99.90;;;;;;4966031;28;20065;-64
2022/10/17 02:08:49;;;;;;;17.83;13.88;;;13.10;99.90;;;;;;4973906;28;20043;-64
2022/10/17 02:11:22;;;;;;;24.38;13.98;;;13.10;99.90;;;;;;4963011;28;20054;-63
2022/10/17 02:14:30;;;;;;;17.65;13.48;;;13.10;99.90;;;;;;4962565;28;20073;-63
2022/10/17 02:17:16;;;;;;;18.33;14.15;;;13.10;99.90;;;;;;4954731;28;20039;-64
2022/10/17 02:20:21;;;;;;;19.25;14.48;;;13.10;99.90;;;;;;4954855;28;20055;-64
2022/10/17 02:23:10;;;;;;;21.00;14.13;;;13.10;99.90;;;;;;4939859;28;20112;-63
2022/10/17 02:25:44;;;;;;;20.67;14.40;;;13.00;99.90;;;;;;4974020;28;20517;-63
2022/10/17 02:28:19;;;;;;;24.88;15.82;;;13.00;99.90;;;;;;4957015;28;20047;-64
2022/10/17 02:30:53;;;;;;;21.48;15.52;;;13.00;99.90;;;;;;4961875;28;20043;-63
2022/10/17 02:33:29;;;;;;;20.83;14.93;;;13.00;99.90;;;;;;4972584;28;20405;-64
2022/10/17 02:36:01;;;;;;;21.63;15.73;;;13.00;99.90;;;;;;4963733;28;20042;-63
2022/10/17 02:38:29;;;;;;;25.15;15.70;;;13.00;99.90;;;;;;4973083;28;20034;-62
2022/10/17 02:40:55;;;;;;;26.48;16.35;;;13.00;99.90;;;;;;4965390;28;20045;-63
2022/10/17 02:43:21;;;;;;;22.77;15.55;;;13.10;99.90;;;;;;4969810;28;20038;-63
2022/10/17 02:45:48;;;;;;;23.08;16.10;;;13.10;99.90;;;;;;4967246;28;20502;-61
2022/10/17 02:48:38;;;;;;;27.60;16.35;;;13.10;99.90;;;;;;4961864;28;20047;-64
2022/10/17 02:51:21;;;;;;;21.80;15.40;;;13.10;99.90;;;;;;4955730;28;20070;-60
2022/10/17 02:54:00;;;;;;;22.35;16.13;;;13.10;99.90;;;;;;4957832;28;20039;-63
2022/10/17 02:56:29;;;;;;;20.05;14.98;;;13.10;99.90;;;;;;4968860;28;20046;-63
2022/10/17 02:58:58;;;;;;;20.45;15.10;;;13.20;99.90;;;;;;4954254;28;20084;-61
2022/10/17 03:01:25;;;;;;;20.00;14.80;;;13.20;99.90;;;;;;4961216;28;20046;-63
2022/10/17 03:03:50;;;;;;;29.05;16.10;;;13.10;99.90;;;;;;4961616;28;20130;-62
2022/10/17 03:06:16;;;;;;;22.10;15.32;;;13.10;99.90;;;;;;4971575;28;20118;-63
2022/10/17 03:08:42;;;;;;;24.30;16.13;;;13.10;99.90;;;;;;4963610;28;20405;-63
2022/10/17 03:11:07;;;;;;;20.95;16.02;;;13.20;99.90;;;;;;4963685;28;20114;-60
2022/10/17 03:13:33;;;;;;;22.95;15.63;;;13.20;99.90;;;;;;4956324;28;20043;-60
2022/10/17 03:15:59;;;;;;;22.15;15.98;;;13.20;99.90;;;;;;4951910;28;20059;-63
2022/10/17 03:18:24;;;;;;;23.55;16.23;;;13.10;99.90;;;;;;4970778;28;20043;-60
2022/10/17 03:20:50;;;;;;;24.17;17.17;;;13.20;99.90;;;;;;4966263;28;20082;-61
2022/10/17 03:23:15;;;;;;;24.55;16.55;;;13.20;99.90;;;;;;4955257;28;20043;-61
2022/10/17 03:25:41;;;;;;;21.67;16.13;;;13.20;99.90;;;;;;4960922;28;20079;-61
2022/10/17 03:28:07;;;;;;;25.65;17.85;;;13.20;99.90;;;;;;4957884;28;20045;-61
2022/10/17 03:30:33;;;;;;;24.95;17.23;;;13.20;99.90;;;;;;4963829;28;20043;-60
2022/10/17 03:32:59;;;;;;;22.13;17.20;;;13.30;99.90;;;;;;4968420;28;20090;-61
2022/10/17 03:35:25;;;;;;;22.08;16.33;;;13.30;99.90;;;;;;4971499;28;20082;-62
2022/10/17 03:37:51;;;;;;;23.33;16.52;;;13.20;99.90;;;;;;4962609;28;20137;-60
2022/10/17 03:40:17;;;;;;;23.27;16.13;;;13.30;99.90;;;;;;4969385;28;20174;-60
2022/10/17 03:42:43;;;;;;;24.75;16.63;;;13.30;99.90;;;;;;4966437;28;20047;-63
2022/10/17 03:45:09;;;;;;;26.05;16.88;;;13.20;99.90;;;;;;4972041;28;20074;-62
2022/10/17 03:47:34;;;;;;;29.23;18.17;;;13.20;99.90;;;;;;4965931;28;20101;-61
2022/10/17 03:50:00;;;;;;;24.67;16.65;;;13.20;99.90;;;;;;4961479;28;20426;-63
2022/10/17 03:52:25;;;;;;;22.55;16.63;;;13.20;99.90;;;;;;4965737;28;20027;-61
2022/10/17 03:54:51;;;;;;;24.25;17.05;;;13.20;99.90;;;;;;4963079;28;20421;-62
2022/10/17 03:57:18;;;;;;;23.10;16.98;;;13.30;99.90;;;;;;4972482;28;20035;-62
2022/10/17 03:59:43;;;;;;;26.15;16.45;;;13.30;99.90;;;;;;4957413;28;20114;-63
2022/10/17 04:02:09;;;;;;;27.55;17.13;;;13.30;99.90;;;;;;4961201;28;20471;-62
2022/10/17 04:04:35;;;;;;;24.25;16.83;;;13.30;99.90;;;;;;4968240;28;20525;-61
2022/10/17 04:07:00;;;;;;;25.90;17.15;;;13.30;99.90;;;;;;4950251;28;20490;-60
2022/10/17 04:09:26;;;;;;;24.73;17.67;;;13.30;99.90;;;;;;4958120;28;20118;-60
2022/10/17 04:11:51;;;;;;;29.02;17.73;;;13.20;99.90;;;;;;4963855;28;20046;-62
2022/10/17 04:14:17;;;;;;;26.92;17.17;;;13.20;99.90;;;;;;4968983;28;20071;-60
2022/10/17 04:16:43;;;;;;;28.60;18.25;;;13.20;99.90;;;;;;4958125;28;20077;-60
2022/10/17 04:19:12;;;;;;;26.60;18.10;;;13.20;99.90;;;;;;4957484;28;20452;-63
2022/10/17 04:21:38;;;;;;;28.23;18.27;;;13.20;99.90;;;;;;4959355;28;20039;-64
2022/10/17 04:24:04;;;;;;;28.05;18.02;;;13.20;99.90;;;;;;4957621;28;20515;-61
2022/10/17 04:26:30;;;;;;;28.80;19.13;;;13.30;99.90;;;;;;4968384;28;20682;-63
2022/10/17 04:28:55;;;;;;;27.75;18.45;;;13.30;99.90;;;;;;4967918;28;20169;-63
2022/10/17 04:31:21;;;;;;;26.42;19.15;;;13.30;99.90;;;;;;4972145;28;20101;-63
2022/10/17 04:33:48;;;;;;;29.33;18.83;;;13.40;99.90;;;;;;4960544;28;20035;-62
2022/10/17 04:36:16;;;;;;;28.92;17.85;;;13.30;99.90;;;;;;4963761;28;20047;-63
2022/10/17 04:38:42;;;;;;;28.23;17.77;;;13.40;99.90;;;;;;4972258;28;20089;-63
2022/10/17 04:41:13;;;;;;;31.77;18.63;;;13.30;99.90;;;;;;4960570;28;20083;-63
2022/10/17 04:43:40;;;;;;;30.00;19.00;;;13.30;99.90;;;;;;4962054;28;20409;-63
2022/10/17 04:46:07;;;;;;;31.23;18.17;;;13.30;99.90;;;;;;4968923;28;20125;-63
2022/10/17 04:48:33;;;;;;;27.83;18.13;;;13.30;99.90;;;;;;4966297;28;20050;-61
2022/10/17 04:51:08;;;;;;;28.95;19.13;;;13.30;99.90;;;;;;4966734;28;20035;-60
2022/10/17 04:53:35;;;;;;;31.83;19.58;;;13.30;99.90;;;;;;4968468;28;20035;-60
2022/10/17 04:56:06;;;;;;;28.83;18.08;;;13.30;99.90;;;;;;4972344;28;20046;-62
2022/10/17 04:58:32;;;;;;;32.20;19.67;;;13.30;99.90;;;;;;4956387;28;20046;-60
2022/10/17 05:00:57;;;;;;;33.85;20.13;;;13.30;99.90;;;;;;4957330;28;20043;-61
2022/10/17 05:03:23;;;;;;;29.92;19.88;;;13.40;99.90;;;;;;4966090;28;20054;-61
2022/10/17 05:05:48;;;;;;;31.10;20.10;;;13.40;99.90;;;;;;4963369;28;20153;-61
2022/10/17 05:08:14;;;;;;;34.25;19.23;;;13.40;99.90;;;;;;4964172;28;20094;-61
2022/10/17 05:10:43;;;;;;;30.52;19.40;;;13.40;99.90;;;;;;4966883;28;20419;-60
2022/10/17 05:13:09;;;;;;;33.05;19.48;;;13.40;99.90;;;;;;4970705;28;20039;-60
2022/10/17 05:15:36;;;;;;;30.55;19.65;;;13.50;99.90;;;;;;4973131;28;20405;-60
2022/10/17 05:18:03;;;;;;;34.17;19.55;;;13.50;99.90;;;;;;4966630;28;20070;-61
2022/10/17 05:20:28;;;;;;;34.15;19.15;;;13.60;99.90;;;;;;4974957;28;20049;-64
2022/10/17 05:22:54;;;;;;;33.67;20.13;;;13.60;99.90;;;;;;4960417;28;20039;-64
2022/10/17 05:25:20;;;;;;;29.92;19.80;;;13.60;99.90;;;;;;4962568;28;20050;-64
2022/10/17 05:27:46;;;;;;;31.40;19.45;;;13.60;99.90;;;;;;4968337;28;20047;-66
2022/10/17 05:30:11;;;;;;;31.98;19.38;;;13.60;99.90;;;;;;4967699;28;20054;-65
2022/10/17 05:32:37;;;;;;;34.88;19.50;;;13.60;99.90;;;;;;4967085;28;20130;-65
2022/10/17 05:35:03;;;;;;;30.58;19.10;;;13.60;99.90;;;;;;4963934;28;20050;-65
2022/10/17 05:37:30;;;;;;;30.48;19.10;;;13.70;99.90;;;;;;4972355;28;20046;-63
2022/10/17 05:39:56;;;;;;;32.60;19.10;;;13.70;99.90;;;;;;4964460;28;20039;-63
2022/10/17 05:42:22;;;;;;;31.85;19.10;;;13.80;99.90;;;;;;4963284;28;20053;-63
2022/10/17 05:44:48;;;;;;;32.40;19.27;;;13.90;99.90;;;;;;4966631;28;20043;-63
2022/10/17 05:47:14;;;;;;;29.90;18.63;;;14.10;99.90;;;;;;4966411;28;20026;-63
2022/10/17 05:49:39;;;;;;;34.05;19.13;;;14.20;99.90;;;;;;4961993;28;20465;-63
2022/10/17 05:52:05;;;;;;;34.28;20.02;;;14.40;99.90;;;;;;4960652;28;20103;-63
2022/10/17 05:54:30;;;;;;;29.10;18.80;;;14.50;99.90;;;;;;4955253;28;20054;-64
2022/10/17 05:56:56;;;;;;;33.40;19.60;;;14.60;99.90;;;;;;4963062;28;20035;-63
2022/10/17 05:59:24;;;;;;;28.98;18.77;;;14.70;99.90;;;;;;4965849;28;20035;-63
2022/10/17 06:01:50;;;;;;;28.92;18.35;;;14.80;99.90;;;;;;4973831;28;20078;-63
2022/10/17 06:04:16;;;;;;;36.30;19.23;;;14.80;99.90;;;;;;4970018;28;20081;-63
2022/10/17 06:06:41;;;;;;;30.70;18.25;;;14.90;99.90;;;;;;4968373;28;20099;-63
2022/10/17 06:09:07;;;;;;;27.20;18.00;;;14.90;99.90;;;;;;4971248;28;20093;-64
2022/10/17 06:11:34;;;;;;;29.83;18.08;;;15.10;99.90;;;;;;4969314;28;20057;-65
2022/10/17 06:14:00;;;;;;;30.73;17.40;;;15.20;99.90;;;;;;4962648;28;20446;-63
2022/10/17 06:16:25;;;;;;;27.35;18.23;;;15.20;99.90;;;;;;4965084;28;20493;-63
2022/10/17 06:18:51;;;;;;;29.83;18.08;;;15.20;99.90;;;;;;4974197;28;20101;-65
2022/10/17 06:21:24;;;;;;;34.22;17.98;;;15.30;99.90;;;;;;4959158;28;20391;-63
2022/10/17 06:23:51;;;;;;;28.70;16.73;;;15.30;99.90;;;;;;4960047;28;20077;-64
2022/10/17 06:26:17;;;;;;;24.95;17.05;;;15.40;99.90;;;;;;4953563;28;20035;-65
2022/10/17 06:28:42;;;;;;;27.20;16.73;;;15.40;99.90;;;;;;4959450;28;20049;-63
2022/10/17 06:31:10;;;;;;;28.23;16.75;;;15.40;99.90;;;;;;4962079;28;20134;-64
2022/10/17 06:33:36;;;;;;;24.98;16.38;;;15.40;99.90;;;;;;4955072;28;20077;-66
2022/10/17 06:36:03;;;;;;;27.92;16.58;;;15.40;99.90;;;;;;4954344;28;20046;-64
2022/10/17 06:38:29;;;;;;;23.60;16.00;;;15.40;99.90;;;;;;4963918;28;20043;-63
2022/10/17 06:41:07;;;;;;;24.88;16.05;;;15.40;99.90;;;;;;4955510;28;20039;-63
2022/10/17 06:43:33;;;;;;;25.00;15.50;;;15.50;99.90;;;;;;4964780;28;20101;-63
2022/10/17 06:45:59;;;;;;;27.80;16.02;;;15.50;99.90;;;;;;4973023;28;20117;-63
2022/10/17 06:48:25;;;;;;;23.90;15.75;;;15.60;99.90;;;;;;4968923;28;20117;-65
2022/10/17 06:50:50;;;;;;;23.77;15.68;;;15.50;99.90;;;;;;4963329;28;20034;-64
2022/10/17 06:53:16;;;;;;;23.88;15.43;;;15.50;99.90;;;;;;4963391;28;20050;-64
2022/10/17 06:55:41;;;;;;;30.52;15.85;;;15.60;99.90;;;;;;4966118;28;20793;-63
2022/10/17 06:58:07;;;;;;;24.38;15.15;;;15.60;99.90;;;;;;4970789;28;20509;-64
2022/10/17 07:00:33;;;;;;;25.13;15.98;;;15.60;99.90;;;;;;4972001;28;20046;-64
2022/10/17 07:02:58;;;;;;;21.30;15.50;;;15.70;99.90;;;;;;4961345;28;20049;-65
2022/10/17 07:05:24;;;;;;;25.38;14.63;;;15.70;99.90;;;;;;4964256;28;20049;-64
2022/10/17 07:07:49;;;;;;;24.98;14.82;;;15.80;99.90;;;;;;4972803;28;20045;-63
2022/10/17 07:10:15;;;;;;;25.45;15.35;;;15.80;99.90;;;;;;4958427;28;20462;-63
2022/10/17 07:12:43;;;;;;;21.27;14.75;;;15.90;99.90;;;;;;4962550;28;20043;-64
2022/10/17 07:15:09;;;;;;;20.70;14.32;;;15.90;99.90;;;;;;4972319;28;20042;-65
2022/10/17 07:17:35;;;;;;;20.58;14.18;;;16.00;99.90;;;;;;4969056;28;20037;-64
2022/10/17 07:20:00;;;;;;;21.30;14.90;;;16.00;99.90;;;;;;4947444;28;20514;-63
2022/10/17 07:22:26;;;;;;;21.58;14.73;;;16.20;99.90;;;;;;4960620;28;20039;-64
2022/10/17 07:24:51;;;;;;;20.42;13.98;;;16.20;99.90;;;;;;4953331;28;20179;-64
2022/10/17 07:27:17;;;;;;;22.23;14.45;;;16.30;99.90;;;;;;4952510;28;20085;-65
2022/10/17 07:29:43;;;;;;;21.80;14.65;;;16.40;99.90;;;;;;4971655;28;20043;-63
2022/10/17 07:32:08;;;;;;;23.63;14.07;;;16.50;99.90;;;;;;4969322;28;20055;-63
2022/10/17 07:34:35;;;;;;;21.88;14.77;;;16.50;99.90;;;;;;4970397;28;20034;-64
2022/10/17 07:37:02;;;;;;;21.58;13.80;;;16.60;99.90;;;;;;4961068;28;20031;-64
2022/10/17 07:39:28;;;;;;;18.30;13.30;;;16.70;99.90;;;;;;4949955;28;20409;-66
2022/10/17 07:41:53;;;;;;;18.52;13.27;;;16.80;99.90;;;;;;4962413;28;20047;-64
2022/10/17 07:44:19;;;;;;;16.08;12.27;;;16.90;99.90;;;;;;4960549;28;20255;-65
2022/10/17 07:46:44;;;;;;;18.60;12.18;;;17.00;99.90;;;;;;4970848;28;20493;-63
2022/10/17 07:49:10;;;;;;;17.50;12.00;;;17.00;99.90;;;;;;4957829;28;20043;-64
2022/10/17 07:51:36;;;;;;;17.95;11.27;;;17.00;99.90;;;;;;4958842;28;20204;-65
2022/10/17 07:54:03;;;;;;;17.05;11.02;;;17.00;99.90;;;;;;4961834;28;20054;-64
2022/10/17 07:56:29;;;;;;;19.63;11.60;;;17.00;99.90;;;;;;4959578;28;20121;-64
2022/10/17 07:58:54;;;;;;;17.05;12.48;;;16.90;99.90;;;;;;4959939;28;20185;-64
2022/10/17 08:01:20;;;;;;;17.83;11.85;;;16.90;99.90;;;;;;4955500;28;20043;-64
2022/10/17 08:03:47;;;;;;;19.52;11.73;;;16.90;99.90;;;;;;4964169;28;20039;-64
2022/10/17 08:06:13;;;;;;;18.70;12.80;;;16.90;99.90;;;;;;4967232;28;20497;-65
2022/10/17 08:08:40;;;;;;;18.27;11.30;;;16.90;99.90;;;;;;4956176;28;20036;-60
2022/10/17 08:11:08;;;;;;;17.35;11.75;;;16.90;99.90;;;;;;4967778;28;20039;-62
2022/10/17 08:13:34;;;;;;;15.95;12.40;;;17.00;99.90;;;;;;4953186;28;20040;-62
2022/10/17 08:16:07;;;;;;;18.95;12.00;;;17.00;99.90;;;;;;4957545;28;20402;-60
2022/10/17 08:18:33;;;;;;;16.13;12.32;;;17.00;99.90;;;;;;4952879;28;20410;-61
2022/10/17 08:21:01;;;;;;;14.82;11.68;;;17.00;99.90;;;;;;4967125;28;20050;-60
2022/10/17 08:23:27;;;;;;;19.30;12.13;;;17.00;99.90;;;;;;4963531;28;20057;-61
2022/10/17 08:25:53;;;;;;;17.35;12.80;;;17.00;99.90;;;;;;4972082;28;20046;-61
2022/10/17 08:28:19;;;;;;;15.68;12.75;;;17.00;99.90;;;;;;4967484;28;20043;-62
2022/10/17 08:30:44;;;;;;;18.65;12.40;;;17.00;99.90;;;;;;4963768;28;20421;-62
2022/10/17 08:33:10;;;;;;;18.05;12.13;;;17.00;99.90;;;;;;4965611;28;20038;-61
2022/10/17 08:35:35;;;;;;;20.52;13.15;;;17.00;99.90;;;;;;4964204;28;20035;-61
2022/10/17 08:38:01;;;;;;;22.95;13.35;;;17.00;99.90;;;;;;4959259;28;20037;-62
2022/10/17 08:40:30;;;;;;;16.80;11.40;;;16.90;99.90;;;;;;4964779;28;20031;-61
2022/10/17 08:43:07;;;;;;;16.17;11.93;;;16.90;99.90;;;;;;4941867;28;20435;-63
2022/10/17 08:46:16;;;;;;;17.98;12.82;;;17.00;99.90;;;;;;4962490;28;20222;-61
2022/10/17 08:48:44;;;;;;;16.88;12.38;;;17.00;99.90;;;;;;4951591;28;20051;-62
2022/10/17 08:51:30;;;;;;;20.67;12.70;;;17.10;99.90;;;;;;4961093;28;20561;-61
2022/10/17 08:54:46;;;;;;;18.38;12.73;;;17.20;99.90;;;;;;4967929;28;20058;-61
2022/10/17 08:57:14;;;;;;;20.38;12.48;;;17.20;99.90;;;;;;4945821;28;20083;-62
2022/10/17 08:59:40;;;;;;;16.20;12.00;;;17.30;99.90;;;;;;4953462;28;20043;-61
2022/10/17 09:02:27;;;;;;;17.65;11.65;;;17.30;99.90;;;;;;4945617;28;20105;-62
2022/10/17 09:05:00;;;;;;;15.10;11.98;;;17.40;99.90;;;;;;4960226;28;20486;-61
2022/10/17 09:07:35;;;;;;;17.38;11.98;;;17.30;99.90;;;;;;4952802;28;20507;-62
2022/10/17 09:10:50;;;;;;;17.10;12.20;;;17.40;99.90;;;;;;4964805;28;20046;-61
2022/10/17 09:13:41;;;;;;;19.90;11.70;;;17.40;99.90;;;;;;4968206;28;20047;-62
2022/10/17 09:16:18;;;;;;;15.18;11.68;;;17.40;99.90;;;;;;4958390;28;20043;-61
2022/10/17 09:18:58;;;;;;;19.33;11.35;;;17.40;99.90;;;;;;4954781;28;20508;-61
2022/10/17 09:21:49;;;;;;;15.20;10.47;;;17.50;99.90;;;;;;4971797;28;20043;-61
2022/10/17 09:24:26;;;;;;;15.43;10.68;;;17.70;99.90;;;;;;4966150;28;20788;-62
2022/10/17 09:26:54;;;;;;;15.10;9.80;;;17.70;99.90;;;;;;4962085;28;20414;-61
2022/10/17 09:29:26;;;;;;;13.80;9.88;;;17.80;99.90;;;;;;4957646;28;20047;-61
2022/10/17 09:32:21;;;;;;;12.32;9.85;;;17.90;99.90;;;;;;4950827;28;20050;-61
2022/10/17 09:34:47;;;;;;;14.40;9.75;;;18.00;99.90;;;;;;4961511;28;20118;-65
2022/10/17 09:37:14;;;;;;;13.88;10.65;;;18.00;99.90;;;;;;4963056;28;20110;-63
2022/10/17 09:39:42;;;;;;;14.60;10.45;;;17.90;99.90;;;;;;4970525;28;20042;-65
2022/10/17 09:42:13;;;;;;;17.63;10.60;;;17.80;99.90;;;;;;4959232;28;20043;-64
2022/10/17 09:44:46;;;;;;;16.60;10.68;;;17.80;99.90;;;;;;4964560;28;20043;-64
2022/10/17 09:47:21;;;;;;;13.00;10.40;;;17.70;99.90;;;;;;4966109;28;20062;-63
2022/10/17 09:49:48;;;;;;;17.88;10.48;;;17.70;99.90;;;;;;4960311;28;20040;-64
2022/10/17 09:52:38;;;;;;;14.93;10.43;;;17.60;99.90;;;;;;4970934;28;20085;-64
2022/10/17 09:55:05;;;;;;;14.85;10.77;;;17.70;99.90;;;;;;4972576;28;20085;-65
2022/10/17 09:58:00;;;;;;;16.17;10.88;;;17.60;99.90;;;;;;4943429;28;20126;-65
2022/10/17 10:00:29;;;;;;;17.63;11.73;;;17.60;99.90;;;;;;4963114;28;20038;-63
2022/10/17 10:03:21;;;;;;;17.30;11.75;;;17.50;99.90;;;;;;4968634;28;20437;-64
2022/10/17 10:06:13;;;;;;;17.95;11.75;;;17.40;99.90;;;;;;4962637;28;20083;-64
2022/10/17 10:08:57;;;;;;;17.63;11.77;;;17.40;99.90;;;;;;4955479;28;20046;-64
2022/10/17 10:11:54;;;;;;;18.98;12.57;;;17.30;99.90;;;;;;4964689;28;20569;-63
2022/10/17 10:14:32;;;;;;;19.88;13.63;;;17.20;99.90;;;;;;4954572;28;20047;-65
2022/10/17 10:16:59;;;;;;;18.17;13.07;;;17.20;99.90;;;;;;4966571;28;20305;-64
2022/10/17 10:19:29;;;;;;;21.05;14.30;;;17.10;99.90;;;;;;4965184;28;20042;-64
2022/10/17 10:22:15;;;;;;;20.20;13.53;;;17.10;99.90;;;;;;4973497;28;20498;-60
2022/10/17 10:24:41;;;;;;;20.30;14.00;;;17.10;99.90;;;;;;4962165;28;20054;-61
2022/10/17 10:27:14;;;;;;;20.13;15.05;;;17.10;99.90;;;;;;4969833;28;20047;-61
2022/10/17 10:29:58;;;;;;;27.08;14.43;;;17.10;99.90;;;;;;4963542;28;20524;-64
2022/10/17 10:32:25;;;;;;;24.90;14.40;;;17.00;99.90;;;;;;4964294;28;20047;-61
2022/10/17 10:34:56;;;;;;;22.60;13.40;;;17.00;99.90;;;;;;4962930;28;20057;-61
2022/10/17 10:37:27;;;;;;;22.80;14.00;;;17.00;99.90;;;;;;4962739;28;20532;-61
2022/10/17 10:40:03;;;;;;;21.20;13.90;;;17.00;99.90;;;;;;4963544;28;20039;-63
2022/10/17 10:42:38;;;;;;;24.40;15.07;;;17.00;99.90;;;;;;4964079;28;20031;-62
2022/10/17 10:45:18;;;;;;;21.77;15.13;;;17.00;99.90;;;;;;4970081;28;20038;-62
2022/10/17 10:47:58;;;;;;;21.95;15.02;;;17.00;99.90;;;;;;4953059;28;20051;-61
2022/10/17 10:50:42;;;;;;;23.83;15.38;;;16.90;99.90;;;;;;4962089;28;20039;-61
2022/10/17 10:53:43;;;;;;;27.00;15.32;;;16.90;99.90;;;;;;4972201;28;20035;-62
2022/10/17 10:56:18;;;;;;;;;;;16.90;99.90;;;;;;4969527;28;20039;-62
2022/10/17 10:58:53;;;;;;;26.27;15.68;;;16.90;99.90;;;;;;4953148;28;19918;-62
2022/10/17 11:01:26;;;;;;;29.48;16.95;;;16.90;99.90;;;;;;4962912;28;20163;-61
2022/10/17 11:04:19;;;;;;;27.30;15.93;;;16.90;99.90;;;;;;4969638;28;20077;-62
2022/10/17 11:06:46;;;;;;;23.10;15.95;;;16.90;99.90;;;;;;4957513;28;20050;-61
2022/10/17 11:09:23;;;;;;;23.55;15.70;;;17.00;99.90;;;;;;4966702;28;20074;-62
2022/10/17 11:11:57;;;;;;;26.02;16.70;;;17.00;99.90;;;;;;4967542;28;20038;-62
2022/10/17 11:14:32;;;;;;;22.67;15.90;;;17.10;99.90;;;;;;4966733;28;20043;-61
2022/10/17 11:17:35;;;;;;;24.45;16.08;;;17.10;99.90;;;;;;4959130;28;20619;-62
2022/10/17 11:20:19;;;;;;;24.83;15.57;;;17.10;99.90;;;;;;4959748;28;20050;-61
2022/10/17 11:22:47;;;;;;;23.60;15.20;;;17.00;99.90;;;;;;4957891;28;20039;-61
2022/10/17 11:25:13;;;;;;;22.83;15.88;;;17.10;99.90;;;;;;4957741;28;20039;-62
2022/10/17 11:27:39;;;;;;;25.00;15.95;;;17.10;99.90;;;;;;4960230;28;20058;-61
2022/10/17 11:30:05;;;;;;;24.58;15.85;;;17.10;99.90;;;;;;4958832;28;20138;-63
2022/10/17 11:33:02;;;;;;;23.67;15.30;;;17.10;99.90;;;;;;4963134;28;20097;-62
2022/10/17 11:35:41;;;;;;;21.80;13.75;;;17.20;99.90;;;;;;4949824;28;20086;-61
2022/10/17 11:38:31;;;;;;;18.77;13.00;;;17.30;99.90;;;;;;4954110;28;20078;-62
2022/10/17 11:40:58;;;;;;;18.42;12.82;;;17.30;99.90;;;;;;4967512;28;20505;-62
2022/10/17 11:43:36;;;;;;;16.25;12.68;;;17.30;99.90;;;;;;4963933;28;20043;-62
2022/10/17 11:46:20;;;;;;;17.60;12.32;;;17.30;99.90;;;;;;4966514;28;20500;-62
2022/10/17 11:49:13;;;;;;;16.10;12.32;;;17.30;99.90;;;;;;4964721;28;20604;-61
2022/10/17 11:51:47;;;;;;;18.25;11.82;;;17.30;99.90;;;;;;4958711;28;20447;-62
2022/10/17 11:54:20;;;;;;;16.77;12.20;;;17.30;99.90;;;;;;4961133;28;20501;-63
2022/10/17 11:57:23;;;;;;;16.30;12.02;;;17.20;99.90;;;;;;4964429;28;20134;-62
2022/10/17 12:00:19;;;;;;;15.63;10.95;;;17.20;99.90;;;;;;4955619;28;20391;-62
2022/10/17 12:03:03;;;;;;;16.42;11.15;;;17.20;99.90;;;;;;4964449;28;20486;-62
2022/10/17 12:05:47;;;;;;;14.82;9.98;;;17.20;99.90;;;;;;4956889;29;20043;-63
2022/10/17 12:08:27;;;;;;;13.85;9.48;;;17.10;99.90;;;;;;4956117;28;20043;-61
2022/10/17 12:11:02;;;;;;;13.65;9.15;;;17.10;99.90;;;;;;4965063;28;20047;-61
2022/10/17 12:13:27;;;;;;;13.55;9.70;;;17.10;99.90;;;;;;4972532;28;20046;-62
2022/10/17 12:16:20;;;;;;;12.13;9.20;;;17.10;99.90;;;;;;4971542;28;20035;-63
2022/10/17 12:19:01;;;;;;;12.88;8.43;;;17.10;99.90;;;;;;4963454;28;20038;-62
2022/10/17 12:21:41;;;;;;;10.23;8.52;;;17.20;99.90;;;;;;4959229;28;20097;-61
2022/10/17 12:24:27;;;;;;;10.15;8.10;;;17.30;99.90;;;;;;4962741;28;20050;-62
2022/10/17 12:26:53;;;;;;;11.80;8.60;;;17.40;99.90;;;;;;4951813;28;20050;-61
2022/10/17 12:29:29;;;;;;;12.48;8.43;;;17.50;99.90;;;;;;4960562;28;20035;-61
2022/10/17 12:32:12;;;;;;;9.57;7.85;;;17.60;99.90;;;;;;4964215;28;20048;-61
2022/10/17 12:34:38;;;;;;;10.80;8.18;;;17.60;99.90;;;;;;4973249;28;20035;-61
2022/10/17 12:37:03;;;;;;;8.98;7.43;;;17.70;99.90;;;;;;4967396;28;20154;-62
2022/10/17 12:39:29;;;;;;;11.82;7.47;;;17.60;99.90;;;;;;4970752;28;20203;-61
2022/10/17 12:41:54;;;;;;;12.80;8.00;;;17.60;99.90;;;;;;4966272;28;20719;-61
2022/10/17 12:44:20;;;;;;;9.00;7.72;;;17.60;99.90;;;;;;4967433;28;20042;-62
2022/10/17 12:47:24;;;;;;;10.93;8.18;;;17.70;99.90;;;;;;4967333;28;20502;-61
2022/10/17 12:49:50;;;;;;;9.25;7.13;;;17.70;99.90;;;;;;4962369;28;20507;-62
2022/10/17 12:52:18;;;;;;;9.27;8.20;;;17.70;99.90;;;;;;4960441;28;20111;-63